sensor_id;sensor_type;location;lat;lon;timestamp;P1;durP1;ratioP1;P2;durP2;ratioP2
32146;SDS011;32190;49.112;8.598;2022-12-07T00:02:09;2.88;;;2.05;;
32146;SDS011;32190;49.112;8.598;2022-12-07T00:08:00;3.15;;;1.75;;
32146;SDS011;32190;49.112;8.598;2022-12-07T00:13:52;1.65;;;1.55;;
32146;SDS011;32190;49.112;8.598;2022-12-07T00:19:44;2.30;;;2.10;;
32146;SDS011;32190;49.112;8.598;2022-12-07T00:25:38;2.40;;;2.20;;
32146;SDS011;32190;49.112;8.598;2022-12-07T00:31:30;2.20;;;1.80;;
32146;SDS011;32190;49.112;8.598;2022-12-07T00:37:28;1.95;;;1.73;;
32146;SDS011;32190;49.112;8.598;2022-12-07T00:43:19;1.88;;;1.73;;
32146;SDS011;32190;49.112;8.598;2022-12-07T00:49:09;1.83;;;1.52;;
32146;SDS011;32190;49.112;8.598;2022-12-07T00:55:00;2.22;;;1.90;;
32146;SDS011;32190;49.112;8.598;2022-12-07T01:00:51;2.03;;;1.63;;
32146;SDS011;32190;49.112;8.598;2022-12-07T01:06:42;1.83;;;1.73;;
32146;SDS011;32190;49.112;8.598;2022-12-07T01:12:32;2.08;;;1.92;;
32146;SDS011;32190;49.112;8.598;2022-12-07T01:18:23;2.25;;;2.05;;
32146;SDS011;32190;49.112;8.598;2022-12-07T01:24:14;2.03;;;1.77;;
32146;SDS011;32190;49.112;8.598;2022-12-07T01:30:05;2.33;;;2.00;;
32146;SDS011;32190;49.112;8.598;2022-12-07T01:36:01;1.90;;;1.77;;
32146;SDS011;32190;49.112;8.598;2022-12-07T01:41:56;2.13;;;1.92;;
32146;SDS011;32190;49.112;8.598;2022-12-07T01:47:49;2.88;;;2.10;;
32146;SDS011;32190;49.112;8.598;2022-12-07T01:53:43;1.90;;;1.73;;
32146;SDS011;32190;49.112;8.598;2022-12-07T01:59:35;2.22;;;2.03;;
32146;SDS011;32190;49.112;8.598;2022-12-07T02:05:27;2.38;;;1.88;;
32146;SDS011;32190;49.112;8.598;2022-12-07T02:11:18;2.33;;;2.13;;
32146;SDS011;32190;49.112;8.598;2022-12-07T02:17:12;1.98;;;1.85;;
32146;SDS011;32190;49.112;8.598;2022-12-07T02:29:22;2.75;;;2.55;;
32146;SDS011;32190;49.112;8.598;2022-12-07T02:35:19;2.70;;;2.50;;
32146;SDS011;32190;49.112;8.598;2022-12-07T02:41:31;1.98;;;1.85;;
32146;SDS011;32190;49.112;8.598;2022-12-07T02:47:26;2.80;;;2.60;;
32146;SDS011;32190;49.112;8.598;2022-12-07T02:53:37;2.50;;;2.28;;
32146;SDS011;32190;49.112;8.598;2022-12-07T03:05:54;3.15;;;2.53;;
32146;SDS011;32190;49.112;8.598;2022-12-07T03:12:10;2.80;;;2.60;;
32146;SDS011;32190;49.112;8.598;2022-12-07T03:18:06;3.22;;;2.58;;
32146;SDS011;32190;49.112;8.598;2022-12-07T03:24:00;2.60;;;2.30;;
32146;SDS011;32190;49.112;8.598;2022-12-07T03:30:14;2.95;;;2.30;;
32146;SDS011;32190;49.112;8.598;2022-12-07T03:36:21;3.35;;;2.70;;
32146;SDS011;32190;49.112;8.598;2022-12-07T03:42:28;2.60;;;2.40;;
32146;SDS011;32190;49.112;8.598;2022-12-07T03:54:34;2.90;;;2.70;;
32146;SDS011;32190;49.112;8.598;2022-12-07T04:00:41;3.10;;;2.80;;
32146;SDS011;32190;49.112;8.598;2022-12-07T04:06:33;2.58;;;2.30;;
32146;SDS011;32190;49.112;8.598;2022-12-07T04:12:23;3.35;;;3.05;;
32146;SDS011;32190;49.112;8.598;2022-12-07T04:18:14;3.00;;;2.58;;
32146;SDS011;32190;49.112;8.598;2022-12-07T04:24:05;2.97;;;2.78;;
32146;SDS011;32190;49.112;8.598;2022-12-07T04:29:56;2.72;;;2.53;;
32146;SDS011;32190;49.112;8.598;2022-12-07T04:35:47;2.58;;;2.33;;
32146;SDS011;32190;49.112;8.598;2022-12-07T04:41:37;3.25;;;2.92;;
32146;SDS011;32190;49.112;8.598;2022-12-07T04:47:28;3.00;;;2.60;;
32146;SDS011;32190;49.112;8.598;2022-12-07T04:53:19;4.38;;;3.67;;
32146;SDS011;32190;49.112;8.598;2022-12-07T04:59:13;3.35;;;3.05;;
32146;SDS011;32190;49.112;8.598;2022-12-07T05:05:05;3.58;;;2.75;;
32146;SDS011;32190;49.112;8.598;2022-12-07T05:10:56;4.78;;;3.58;;
32146;SDS011;32190;49.112;8.598;2022-12-07T05:16:48;3.53;;;3.03;;
32146;SDS011;32190;49.112;8.598;2022-12-07T05:22:40;3.97;;;3.00;;
32146;SDS011;32190;49.112;8.598;2022-12-07T05:28:31;3.17;;;2.80;;
32146;SDS011;32190;49.112;8.598;2022-12-07T05:34:22;3.40;;;3.03;;
32146;SDS011;32190;49.112;8.598;2022-12-07T05:40:13;2.67;;;2.47;;
32146;SDS011;32190;49.112;8.598;2022-12-07T05:46:04;3.42;;;3.00;;
32146;SDS011;32190;49.112;8.598;2022-12-07T05:51:55;3.63;;;2.90;;
32146;SDS011;32190;49.112;8.598;2022-12-07T05:57:45;3.35;;;2.90;;
32146;SDS011;32190;49.112;8.598;2022-12-07T06:03:56;3.30;;;3.00;;
32146;SDS011;32190;49.112;8.598;2022-12-07T06:09:47;3.70;;;2.70;;
32146;SDS011;32190;49.112;8.598;2022-12-07T06:15:41;3.45;;;2.92;;
32146;SDS011;32190;49.112;8.598;2022-12-07T06:21:32;3.35;;;2.90;;
32146;SDS011;32190;49.112;8.598;2022-12-07T06:27:23;3.53;;;2.90;;
32146;SDS011;32190;49.112;8.598;2022-12-07T06:33:13;3.72;;;3.13;;
32146;SDS011;32190;49.112;8.598;2022-12-07T06:39:04;5.75;;;4.03;;
32146;SDS011;32190;49.112;8.598;2022-12-07T06:44:55;2.63;;;2.40;;
32146;SDS011;32190;49.112;8.598;2022-12-07T06:50:46;5.50;;;3.50;;
32146;SDS011;32190;49.112;8.598;2022-12-07T06:56:37;4.95;;;3.88;;
32146;SDS011;32190;49.112;8.598;2022-12-07T07:02:28;3.72;;;3.38;;
32146;SDS011;32190;49.112;8.598;2022-12-07T07:08:19;3.38;;;2.60;;
32146;SDS011;32190;49.112;8.598;2022-12-07T07:14:09;4.00;;;3.40;;
32146;SDS011;32190;49.112;8.598;2022-12-07T07:20:00;3.90;;;3.35;;
32146;SDS011;32190;49.112;8.598;2022-12-07T07:25:51;4.40;;;3.50;;
32146;SDS011;32190;49.112;8.598;2022-12-07T07:31:44;3.50;;;2.88;;
32146;SDS011;32190;49.112;8.598;2022-12-07T07:37:35;4.82;;;3.30;;
32146;SDS011;32190;49.112;8.598;2022-12-07T07:43:26;4.03;;;3.38;;
32146;SDS011;32190;49.112;8.598;2022-12-07T07:49:17;3.70;;;2.88;;
32146;SDS011;32190;49.112;8.598;2022-12-07T07:55:07;5.13;;;3.17;;
32146;SDS011;32190;49.112;8.598;2022-12-07T08:01:07;3.35;;;3.05;;
32146;SDS011;32190;49.112;8.598;2022-12-07T08:06:58;3.55;;;3.20;;
32146;SDS011;32190;49.112;8.598;2022-12-07T08:12:51;4.70;;;3.47;;
32146;SDS011;32190;49.112;8.598;2022-12-07T08:19:00;3.22;;;2.92;;
32146;SDS011;32190;49.112;8.598;2022-12-07T08:24:51;4.18;;;3.28;;
32146;SDS011;32190;49.112;8.598;2022-12-07T08:30:42;3.80;;;2.88;;
32146;SDS011;32190;49.112;8.598;2022-12-07T08:36:32;4.63;;;2.95;;
32146;SDS011;32190;49.112;8.598;2022-12-07T08:42:23;4.25;;;2.90;;
32146;SDS011;32190;49.112;8.598;2022-12-07T08:48:17;3.28;;;2.97;;
32146;SDS011;32190;49.112;8.598;2022-12-07T08:54:13;4.00;;;2.83;;
32146;SDS011;32190;49.112;8.598;2022-12-07T09:00:06;3.88;;;3.08;;
32146;SDS011;32190;49.112;8.598;2022-12-07T09:05:58;4.32;;;3.08;;
32146;SDS011;32190;49.112;8.598;2022-12-07T09:11:48;4.65;;;2.83;;
32146;SDS011;32190;49.112;8.598;2022-12-07T09:17:39;3.08;;;2.60;;
32146;SDS011;32190;49.112;8.598;2022-12-07T09:23:30;3.50;;;3.20;;
32146;SDS011;32190;49.112;8.598;2022-12-07T09:29:20;3.83;;;3.05;;
32146;SDS011;32190;49.112;8.598;2022-12-07T09:35:11;3.08;;;2.67;;
32146;SDS011;32190;49.112;8.598;2022-12-07T09:41:05;3.28;;;2.97;;
32146;SDS011;32190;49.112;8.598;2022-12-07T09:46:57;3.15;;;2.75;;
32146;SDS011;32190;49.112;8.598;2022-12-07T09:52:49;3.50;;;2.83;;
32146;SDS011;32190;49.112;8.598;2022-12-07T09:58:40;3.28;;;2.92;;
32146;SDS011;32190;49.112;8.598;2022-12-07T10:04:32;4.22;;;2.80;;
32146;SDS011;32190;49.112;8.598;2022-12-07T10:10:27;3.70;;;3.10;;
32146;SDS011;32190;49.112;8.598;2022-12-07T10:22:15;3.35;;;2.40;;
32146;SDS011;32190;49.112;8.598;2022-12-07T10:33:58;4.85;;;2.90;;
32146;SDS011;32190;49.112;8.598;2022-12-07T10:39:54;3.70;;;2.80;;
32146;SDS011;32190;49.112;8.598;2022-12-07T10:52:08;3.83;;;3.27;;
32146;SDS011;32190;49.112;8.598;2022-12-07T11:04:23;2.90;;;2.60;;
32146;SDS011;32190;49.112;8.598;2022-12-07T11:16:45;2.92;;;2.63;;
32146;SDS011;32190;49.112;8.598;2022-12-07T11:23:02;3.92;;;3.03;;
32146;SDS011;32190;49.112;8.598;2022-12-07T11:41:27;2.50;;;2.30;;
32146;SDS011;32190;49.112;8.598;2022-12-07T11:47:38;3.20;;;2.70;;
32146;SDS011;32190;49.112;8.598;2022-12-07T11:53:43;4.13;;;3.50;;
32146;SDS011;32190;49.112;8.598;2022-12-07T11:59:52;4.32;;;2.67;;
32146;SDS011;32190;49.112;8.598;2022-12-07T12:05:49;4.53;;;3.17;;
32146;SDS011;32190;49.112;8.598;2022-12-07T12:11:46;4.38;;;3.33;;
32146;SDS011;32190;49.112;8.598;2022-12-07T12:30:02;3.78;;;3.17;;
32146;SDS011;32190;49.112;8.598;2022-12-07T12:42:05;2.95;;;2.65;;
32146;SDS011;32190;49.112;8.598;2022-12-07T12:48:27;4.13;;;2.95;;
32146;SDS011;32190;49.112;8.598;2022-12-07T12:54:27;4.73;;;3.40;;
32146;SDS011;32190;49.112;8.598;2022-12-07T13:00:23;3.85;;;3.10;;
32146;SDS011;32190;49.112;8.598;2022-12-07T13:06:20;4.15;;;2.83;;
32146;SDS011;32190;49.112;8.598;2022-12-07T13:12:16;4.50;;;2.92;;
32146;SDS011;32190;49.112;8.598;2022-12-07T13:24:18;4.50;;;3.33;;
32146;SDS011;32190;49.112;8.598;2022-12-07T13:30:12;3.83;;;3.20;;
32146;SDS011;32190;49.112;8.598;2022-12-07T13:36:09;4.65;;;3.15;;
32146;SDS011;32190;49.112;8.598;2022-12-07T13:42:09;4.53;;;3.42;;
32146;SDS011;32190;49.112;8.598;2022-12-07T13:48:15;4.40;;;3.28;;
32146;SDS011;32190;49.112;8.598;2022-12-07T13:54:22;3.00;;;2.70;;
32146;SDS011;32190;49.112;8.598;2022-12-07T14:00:19;3.33;;;2.65;;
32146;SDS011;32190;49.112;8.598;2022-12-07T14:06:25;4.32;;;3.33;;
32146;SDS011;32190;49.112;8.598;2022-12-07T14:18:24;3.40;;;2.63;;
32146;SDS011;32190;49.112;8.598;2022-12-07T14:24:43;4.10;;;3.47;;
32146;SDS011;32190;49.112;8.598;2022-12-07T14:30:34;4.45;;;3.40;;
32146;SDS011;32190;49.112;8.598;2022-12-07T14:36:25;8.25;;;4.95;;
32146;SDS011;32190;49.112;8.598;2022-12-07T14:42:15;6.60;;;4.18;;
32146;SDS011;32190;49.112;8.598;2022-12-07T14:48:13;6.88;;;5.55;;
32146;SDS011;32190;49.112;8.598;2022-12-07T14:54:05;5.90;;;4.20;;
32146;SDS011;32190;49.112;8.598;2022-12-07T15:00:01;4.03;;;3.63;;
32146;SDS011;32190;49.112;8.598;2022-12-07T15:05:52;3.60;;;3.20;;
32146;SDS011;32190;49.112;8.598;2022-12-07T15:11:42;4.57;;;3.25;;
32146;SDS011;32190;49.112;8.598;2022-12-07T15:17:33;4.07;;;3.53;;
32146;SDS011;32190;49.112;8.598;2022-12-07T15:23:23;2.80;;;2.58;;
32146;SDS011;32190;49.112;8.598;2022-12-07T15:29:14;3.22;;;2.83;;
32146;SDS011;32190;49.112;8.598;2022-12-07T15:35:06;3.60;;;2.58;;
32146;SDS011;32190;49.112;8.598;2022-12-07T15:40:56;3.33;;;2.30;;
32146;SDS011;32190;49.112;8.598;2022-12-07T15:46:47;2.90;;;2.60;;
32146;SDS011;32190;49.112;8.598;2022-12-07T15:52:38;2.55;;;2.15;;
32146;SDS011;32190;49.112;8.598;2022-12-07T15:58:30;2.92;;;2.65;;
32146;SDS011;32190;49.112;8.598;2022-12-07T16:04:21;2.88;;;2.58;;
32146;SDS011;32190;49.112;8.598;2022-12-07T16:10:12;2.97;;;2.33;;
32146;SDS011;32190;49.112;8.598;2022-12-07T16:16:03;2.63;;;2.42;;
32146;SDS011;32190;49.112;8.598;2022-12-07T16:21:55;2.45;;;2.25;;
32146;SDS011;32190;49.112;8.598;2022-12-07T16:27:46;2.10;;;1.90;;
32146;SDS011;32190;49.112;8.598;2022-12-07T16:33:37;2.70;;;2.50;;
32146;SDS011;32190;49.112;8.598;2022-12-07T16:39:28;3.17;;;2.88;;
32146;SDS011;32190;49.112;8.598;2022-12-07T16:45:19;3.17;;;2.63;;
32146;SDS011;32190;49.112;8.598;2022-12-07T16:51:11;5.82;;;2.88;;
32146;SDS011;32190;49.112;8.598;2022-12-07T16:57:02;3.15;;;2.85;;
32146;SDS011;32190;49.112;8.598;2022-12-07T17:02:53;2.75;;;2.35;;
32146;SDS011;32190;49.112;8.598;2022-12-07T17:08:45;2.38;;;2.17;;
32146;SDS011;32190;49.112;8.598;2022-12-07T17:14:36;2.88;;;2.42;;
32146;SDS011;32190;49.112;8.598;2022-12-07T17:20:45;3.17;;;2.72;;
32146;SDS011;32190;49.112;8.598;2022-12-07T17:26:35;3.20;;;2.90;;
32146;SDS011;32190;49.112;8.598;2022-12-07T17:32:27;4.78;;;3.53;;
32146;SDS011;32190;49.112;8.598;2022-12-07T17:38:17;4.55;;;2.97;;
32146;SDS011;32190;49.112;8.598;2022-12-07T17:44:09;4.25;;;3.03;;
32146;SDS011;32190;49.112;8.598;2022-12-07T17:50:04;3.80;;;2.67;;
32146;SDS011;32190;49.112;8.598;2022-12-07T17:55:56;2.90;;;2.47;;
32146;SDS011;32190;49.112;8.598;2022-12-07T18:01:46;4.05;;;3.35;;
32146;SDS011;32190;49.112;8.598;2022-12-07T18:07:37;5.75;;;4.22;;
32146;SDS011;32190;49.112;8.598;2022-12-07T18:13:27;4.13;;;3.28;;
32146;SDS011;32190;49.112;8.598;2022-12-07T18:19:27;4.90;;;3.20;;
32146;SDS011;32190;49.112;8.598;2022-12-07T18:25:17;4.60;;;3.08;;
32146;SDS011;32190;49.112;8.598;2022-12-07T18:31:08;3.40;;;2.70;;
32146;SDS011;32190;49.112;8.598;2022-12-07T18:36:59;2.97;;;2.70;;
32146;SDS011;32190;49.112;8.598;2022-12-07T18:42:50;5.72;;;3.40;;
32146;SDS011;32190;49.112;8.598;2022-12-07T18:48:44;3.63;;;2.97;;
32146;SDS011;32190;49.112;8.598;2022-12-07T18:54:35;5.70;;;3.00;;
32146;SDS011;32190;49.112;8.598;2022-12-07T19:00:26;3.60;;;2.90;;
32146;SDS011;32190;49.112;8.598;2022-12-07T19:06:17;6.13;;;3.58;;
32146;SDS011;32190;49.112;8.598;2022-12-07T19:12:10;4.07;;;3.05;;
32146;SDS011;32190;49.112;8.598;2022-12-07T19:18:01;5.60;;;3.40;;
32146;SDS011;32190;49.112;8.598;2022-12-07T19:23:52;3.95;;;3.55;;
32146;SDS011;32190;49.112;8.598;2022-12-07T19:29:44;4.93;;;3.22;;
32146;SDS011;32190;49.112;8.598;2022-12-07T19:35:35;4.70;;;3.45;;
32146;SDS011;32190;49.112;8.598;2022-12-07T19:41:25;4.30;;;3.55;;
32146;SDS011;32190;49.112;8.598;2022-12-07T19:47:25;6.65;;;3.92;;
32146;SDS011;32190;49.112;8.598;2022-12-07T19:53:16;5.82;;;3.90;;
32146;SDS011;32190;49.112;8.598;2022-12-07T19:59:06;4.50;;;3.28;;
32146;SDS011;32190;49.112;8.598;2022-12-07T20:05:00;5.38;;;4.65;;
32146;SDS011;32190;49.112;8.598;2022-12-07T20:10:51;4.07;;;3.47;;
32146;SDS011;32190;49.112;8.598;2022-12-07T20:16:42;4.72;;;3.72;;
32146;SDS011;32190;49.112;8.598;2022-12-07T20:22:35;5.13;;;4.22;;
32146;SDS011;32190;49.112;8.598;2022-12-07T20:28:26;5.32;;;3.85;;
32146;SDS011;32190;49.112;8.598;2022-12-07T20:34:17;4.57;;;3.80;;
32146;SDS011;32190;49.112;8.598;2022-12-07T20:40:07;3.83;;;3.20;;
32146;SDS011;32190;49.112;8.598;2022-12-07T20:45:58;6.05;;;4.03;;
32146;SDS011;32190;49.112;8.598;2022-12-07T20:51:49;5.10;;;3.30;;
32146;SDS011;32190;49.112;8.598;2022-12-07T20:57:40;7.38;;;4.57;;
32146;SDS011;32190;49.112;8.598;2022-12-07T21:03:31;6.15;;;4.30;;
32146;SDS011;32190;49.112;8.598;2022-12-07T21:09:21;4.57;;;3.97;;
32146;SDS011;32190;49.112;8.598;2022-12-07T21:15:15;4.25;;;3.65;;
32146;SDS011;32190;49.112;8.598;2022-12-07T21:21:07;6.20;;;4.07;;
32146;SDS011;32190;49.112;8.598;2022-12-07T21:26:58;6.15;;;3.80;;
32146;SDS011;32190;49.112;8.598;2022-12-07T21:32:48;5.07;;;3.85;;
32146;SDS011;32190;49.112;8.598;2022-12-07T21:38:39;5.15;;;3.40;;
32146;SDS011;32190;49.112;8.598;2022-12-07T21:44:30;5.63;;;4.13;;
32146;SDS011;32190;49.112;8.598;2022-12-07T21:50:20;6.15;;;4.25;;
32146;SDS011;32190;49.112;8.598;2022-12-07T21:56:14;6.13;;;4.07;;
32146;SDS011;32190;49.112;8.598;2022-12-07T22:02:09;5.10;;;3.85;;
32146;SDS011;32190;49.112;8.598;2022-12-07T22:08:03;5.25;;;3.58;;
32146;SDS011;32190;49.112;8.598;2022-12-07T22:13:54;5.95;;;4.32;;
32146;SDS011;32190;49.112;8.598;2022-12-07T22:20:06;7.43;;;4.97;;
32146;SDS011;32190;49.112;8.598;2022-12-07T22:26:03;5.70;;;4.63;;
32146;SDS011;32190;49.112;8.598;2022-12-07T22:31:57;6.97;;;5.50;;
32146;SDS011;32190;49.112;8.598;2022-12-07T22:37:48;6.30;;;4.45;;
32146;SDS011;32190;49.112;8.598;2022-12-07T22:43:38;6.30;;;4.07;;
32146;SDS011;32190;49.112;8.598;2022-12-07T22:49:29;4.07;;;3.30;;
32146;SDS011;32190;49.112;8.598;2022-12-07T22:55:20;5.75;;;4.07;;
32146;SDS011;32190;49.112;8.598;2022-12-07T23:01:11;4.22;;;3.65;;
32146;SDS011;32190;49.112;8.598;2022-12-07T23:07:02;6.13;;;4.28;;
32146;SDS011;32190;49.112;8.598;2022-12-07T23:12:53;6.75;;;4.47;;
32146;SDS011;32190;49.112;8.598;2022-12-07T23:19:02;5.10;;;4.07;;
32146;SDS011;32190;49.112;8.598;2022-12-07T23:24:53;5.60;;;4.18;;
32146;SDS011;32190;49.112;8.598;2022-12-07T23:30:43;4.57;;;3.88;;
32146;SDS011;32190;49.112;8.598;2022-12-07T23:36:34;6.07;;;4.03;;
32146;SDS011;32190;49.112;8.598;2022-12-07T23:42:25;5.00;;;3.42;;
32146;SDS011;32190;49.112;8.598;2022-12-07T23:48:15;4.30;;;3.25;;
32146;SDS011;32190;49.112;8.598;2022-12-07T23:54:06;4.00;;;3.10;;
32146;SDS011;32190;49.112;8.598;2022-12-07T23:59:56;3.83;;;3.13;;
